createdAt,value
2022-11-08T00:01:58.661Z,5.40
2022-11-08T00:07:14.602Z,6.03
2022-11-08T00:12:31.077Z,5.03
2022-11-08T00:17:30.376Z,5.90
2022-11-08T00:22:31.328Z,4.90
2022-11-08T00:27:29.082Z,5.85
2022-11-08T00:32:27.187Z,5.47
2022-11-08T00:37:24.579Z,5.20
2022-11-08T00:42:22.855Z,6.53
2022-11-08T00:47:20.069Z,5.13
2022-11-08T00:52:17.422Z,4.85
2022-11-08T00:57:14.637Z,5.00
2022-11-08T01:02:11.915Z,5.43
2022-11-08T01:07:09.190Z,4.50
2022-11-08T01:12:06.658Z,5.60
2022-11-08T01:17:03.847Z,5.90
2022-11-08T01:22:01.091Z,5.65
2022-11-08T01:26:58.516Z,5.30
2022-11-08T01:31:55.753Z,6.07
2022-11-08T01:36:53.026Z,4.55
2022-11-08T01:41:50.251Z,5.20
2022-11-08T01:46:47.834Z,4.72
2022-11-08T01:51:48.587Z,4.53
2022-11-08T01:56:45.948Z,5.00
2022-11-08T02:01:44.189Z,4.40
2022-11-08T02:06:43.483Z,5.85
2022-11-08T02:11:41.601Z,5.65
2022-11-08T02:16:38.852Z,6.30
2022-11-08T02:21:56.526Z,5.57
2022-11-08T02:26:56.629Z,5.97
2022-11-08T02:31:54.896Z,5.55
2022-11-08T02:36:52.378Z,8.50
2022-11-08T02:41:49.577Z,5.97
2022-11-08T02:46:46.879Z,6.28
2022-11-08T02:51:44.522Z,5.90
2022-11-08T02:56:41.793Z,5.63
2022-11-08T03:01:39.533Z,5.40
2022-11-08T03:06:36.956Z,6.25
2022-11-08T03:11:34.294Z,5.68
2022-11-08T03:16:31.593Z,6.18
2022-11-08T03:21:31.863Z,5.53
2022-11-08T03:26:29.314Z,6.55
2022-11-08T03:31:26.782Z,5.97
2022-11-08T03:36:24.065Z,6.25
2022-11-08T03:41:22.116Z,5.53
2022-11-08T03:46:29.183Z,5.38
2022-11-08T03:51:32.805Z,5.07
2022-11-08T03:56:30.374Z,4.45
2022-11-08T04:01:27.690Z,5.18
2022-11-08T04:06:25.156Z,4.72
2022-11-08T04:11:40.962Z,5.55
2022-11-08T04:16:38.606Z,5.00
2022-11-08T04:21:35.961Z,4.30
2022-11-08T04:26:33.161Z,5.18
2022-11-08T04:31:30.370Z,4.20
2022-11-08T04:36:28.323Z,5.60
2022-11-08T04:41:28.695Z,4.60
2022-11-08T04:46:28.467Z,4.63
2022-11-08T04:51:32.161Z,5.63
2022-11-08T04:56:31.921Z,5.55
2022-11-08T05:01:31.947Z,6.03
2022-11-08T05:06:32.047Z,5.13
2022-11-08T05:11:31.130Z,5.45
2022-11-08T05:16:32.372Z,4.40
2022-11-08T05:21:50.067Z,4.28
2022-11-08T05:26:48.744Z,4.50
2022-11-08T05:31:46.013Z,5.13
2022-11-08T05:36:43.386Z,4.35
2022-11-08T05:41:40.711Z,3.72
2022-11-08T05:46:38.045Z,5.13
2022-11-08T05:51:35.282Z,4.50
2022-11-08T05:56:32.632Z,5.55
2022-11-08T06:01:29.834Z,6.43
2022-11-08T06:06:27.187Z,5.70
2022-11-08T06:11:27.021Z,5.40
2022-11-08T06:16:25.118Z,5.53
2022-11-08T06:21:23.147Z,6.07
2022-11-08T06:26:20.748Z,6.57
2022-11-08T06:31:17.964Z,5.47
2022-11-08T06:36:15.239Z,5.43
2022-11-08T06:41:18.937Z,7.25
2022-11-08T06:46:16.916Z,8.35
2022-11-08T06:51:14.850Z,9.38
2022-11-08T06:56:12.749Z,8.25
2022-11-08T07:01:11.828Z,7.13
2022-11-08T07:06:09.272Z,6.22
2022-11-08T07:11:06.924Z,6.10
2022-11-08T07:16:04.536Z,7.72
2022-11-08T07:21:02.725Z,7.25
2022-11-08T07:26:02.695Z,5.65
2022-11-08T07:31:03.344Z,4.50
2022-11-08T07:36:01.280Z,4.70
2022-11-08T07:41:00.520Z,5.38
2022-11-08T07:46:00.757Z,15.33
2022-11-08T07:50:58.440Z,8.77
2022-11-08T07:55:55.750Z,6.47
2022-11-08T08:00:53.014Z,5.63
2022-11-08T08:06:00.822Z,4.25
2022-11-08T08:11:02.652Z,4.78
2022-11-08T08:16:03.307Z,4.72
2022-11-08T08:21:00.480Z,9.18
2022-11-08T08:25:58.393Z,5.22
2022-11-08T08:30:55.620Z,4.95
2022-11-08T08:35:54.150Z,4.00
2022-11-08T08:40:51.913Z,3.83
2022-11-08T08:45:49.304Z,3.17
2022-11-08T08:50:47.244Z,2.65
2022-11-08T08:55:44.833Z,2.72
2022-11-08T09:06:01.005Z,2.70
2022-11-08T09:11:00.140Z,2.42
2022-11-08T09:16:01.571Z,3.00
2022-11-08T09:20:59.752Z,2.55
2022-11-08T09:26:01.880Z,2.20
2022-11-08T09:31:07.844Z,2.20
2022-11-08T09:36:07.151Z,2.10
2022-11-08T09:41:24.209Z,3.33
2022-11-08T09:46:41.490Z,2.10
2022-11-08T09:51:40.235Z,2.30
2022-11-08T09:56:38.656Z,2.47
2022-11-08T10:01:37.205Z,2.28
2022-11-08T10:06:34.524Z,2.45
2022-11-08T10:11:53.866Z,2.10
2022-11-08T10:17:15.743Z,2.55
2022-11-08T10:22:23.379Z,2.15
2022-11-08T10:27:37.929Z,2.60
2022-11-08T10:32:36.156Z,2.20
2022-11-08T10:37:34.250Z,2.20
2022-11-08T10:42:49.702Z,2.83
2022-11-08T10:47:47.525Z,2.10
2022-11-08T10:52:58.538Z,2.20
2022-11-08T10:57:55.848Z,2.30
2022-11-08T11:02:56.982Z,2.35
2022-11-08T11:07:59.019Z,2.90
2022-11-08T11:13:19.299Z,2.30
2022-11-08T11:18:22.448Z,1.73
2022-11-08T11:23:20.134Z,1.92
2022-11-08T11:28:17.512Z,1.83
2022-11-08T11:33:29.987Z,1.65
2022-11-08T11:38:46.574Z,1.80
2022-11-08T11:43:51.201Z,1.98
2022-11-08T11:48:59.006Z,2.17
2022-11-08T11:53:57.361Z,1.70
2022-11-08T11:59:12.461Z,2.13
2022-11-08T12:04:28.765Z,2.10
2022-11-08T12:09:40.753Z,2.08
2022-11-08T12:14:38.055Z,1.88
2022-11-08T12:20:07.946Z,1.58
2022-11-08T12:25:11.376Z,1.95
2022-11-08T12:30:21.731Z,1.40
2022-11-08T12:35:46.892Z,2.15
2022-11-08T12:41:08.062Z,1.73
2022-11-08T12:46:16.734Z,1.77
2022-11-08T12:51:29.170Z,1.13
2022-11-08T12:56:35.091Z,2.08
2022-11-08T13:01:32.347Z,1.60
2022-11-08T13:06:41.739Z,1.65
2022-11-08T13:11:42.685Z,1.50
2022-11-08T13:16:44.093Z,1.60
2022-11-08T13:21:42.283Z,1.70
2022-11-08T13:26:42.690Z,1.55
2022-11-08T13:31:49.036Z,1.63
2022-11-08T13:37:00.837Z,1.55
2022-11-08T13:42:15.835Z,1.63
2022-11-08T13:47:34.737Z,1.27
2022-11-08T13:52:47.828Z,1.50
2022-11-08T13:58:02.537Z,1.33
2022-11-08T14:03:01.413Z,1.63
2022-11-08T14:08:20.175Z,1.80
2022-11-08T14:13:38.876Z,1.23
2022-11-08T14:18:39.410Z,1.73
2022-11-08T14:23:40.027Z,1.40
2022-11-08T14:28:41.205Z,3.28
2022-11-08T14:33:42.847Z,8.25
2022-11-08T14:39:13.434Z,5.07
2022-11-08T14:44:15.056Z,4.60
2022-11-08T14:49:18.158Z,3.78
2022-11-08T14:54:20.909Z,3.17
2022-11-08T14:59:18.497Z,2.60
2022-11-08T15:04:23.723Z,3.25
2022-11-08T15:09:34.103Z,2.70
2022-11-08T15:14:36.165Z,3.35
2022-11-08T15:19:46.816Z,3.55
2022-11-08T15:24:45.412Z,3.25
2022-11-08T15:29:58.668Z,3.05
2022-11-08T15:34:57.854Z,6.25
2022-11-08T15:39:55.804Z,7.40
2022-11-08T15:45:14.463Z,7.10
2022-11-08T15:50:21.497Z,6.43
2022-11-08T15:55:24.469Z,8.10
2022-11-08T16:00:27.581Z,9.02
2022-11-08T16:05:27.816Z,8.60
2022-11-08T16:16:01.463Z,7.22
2022-11-08T16:20:58.628Z,7.60
2022-11-08T16:25:57.720Z,5.28
2022-11-08T16:30:55.347Z,4.20
2022-11-08T16:35:55.576Z,5.13
2022-11-08T16:46:06.870Z,4.70
2022-11-08T16:51:07.076Z,5.93
2022-11-08T16:56:04.326Z,5.40
2022-11-08T17:01:07.649Z,5.25
2022-11-08T17:06:08.125Z,6.95
2022-11-08T17:11:05.454Z,9.52
2022-11-08T17:16:02.696Z,8.95
2022-11-08T17:21:29.864Z,9.93
2022-11-08T17:26:22.119Z,8.68
2022-11-08T17:31:19.504Z,9.70
2022-11-08T17:36:16.725Z,10.75
2022-11-08T17:41:15.443Z,9.57
2022-11-08T17:46:12.802Z,8.88
2022-11-08T17:51:12.019Z,10.90
2022-11-08T17:56:10.656Z,9.02
2022-11-08T18:01:08.196Z,10.50
2022-11-08T18:06:12.435Z,12.38
2022-11-08T18:11:09.730Z,9.60
2022-11-08T18:16:19.275Z,9.73
2022-11-08T18:21:17.949Z,9.55
2022-11-08T18:26:16.739Z,12.18
2022-11-08T18:31:17.739Z,10.93
2022-11-08T18:36:18.166Z,11.48
2022-11-08T18:41:18.685Z,11.57
2022-11-08T18:46:20.017Z,10.77
2022-11-08T18:51:20.357Z,10.30
2022-11-08T18:56:18.479Z,16.08
2022-11-08T19:01:16.628Z,11.50
2022-11-08T19:06:14.406Z,10.77
2022-11-08T19:11:15.450Z,10.68
2022-11-08T19:16:15.504Z,10.52
2022-11-08T19:21:16.055Z,10.95
2022-11-08T19:26:17.748Z,13.80
2022-11-08T19:31:19.136Z,10.88
2022-11-08T19:36:19.107Z,11.57
2022-11-08T19:41:22.101Z,14.55
2022-11-08T19:46:26.170Z,15.20
2022-11-08T19:51:26.523Z,14.40
2022-11-08T19:56:43.447Z,13.27
2022-11-08T20:01:42.582Z,12.88
2022-11-08T20:06:41.324Z,11.55
2022-11-08T20:11:40.873Z,18.67
2022-11-08T20:16:42.154Z,14.82
2022-11-08T20:21:42.382Z,12.60
2022-11-08T20:26:43.467Z,11.25
2022-11-08T20:31:42.468Z,11.15
2022-11-08T20:36:41.764Z,11.77
2022-11-08T20:41:41.204Z,11.15
2022-11-08T20:46:39.280Z,12.83
2022-11-08T20:51:37.151Z,10.95
2022-11-08T20:56:34.945Z,9.40
2022-11-08T21:01:33.112Z,10.18
2022-11-08T21:06:35.518Z,9.60
2022-11-08T21:11:35.666Z,10.25
2022-11-08T21:16:52.619Z,9.23
2022-11-08T21:22:11.436Z,9.02
2022-11-08T21:27:08.927Z,8.90
2022-11-08T21:32:06.812Z,8.35
2022-11-08T21:37:04.097Z,8.68
2022-11-08T21:42:01.428Z,8.55
2022-11-08T21:46:59.398Z,9.07
2022-11-08T21:51:57.049Z,9.27
2022-11-08T21:56:54.571Z,8.65
2022-11-08T22:01:51.792Z,9.00
2022-11-08T22:06:49.175Z,9.65
2022-11-08T22:11:46.528Z,10.88
2022-11-08T22:16:43.758Z,8.88
2022-11-08T22:21:43.480Z,8.65
2022-11-08T22:26:41.788Z,9.15
2022-11-08T22:31:39.273Z,9.85
2022-11-08T22:36:45.046Z,9.80
2022-11-08T22:41:44.239Z,10.30
2022-11-08T22:46:42.799Z,8.48
2022-11-08T22:51:41.373Z,9.82
2022-11-08T22:56:40.488Z,8.43
2022-11-08T23:01:37.795Z,8.85
2022-11-08T23:06:35.249Z,9.70
2022-11-08T23:11:51.421Z,12.57
2022-11-08T23:16:48.999Z,9.52
2022-11-08T23:22:05.924Z,8.82
2022-11-08T23:27:22.343Z,8.43
2022-11-08T23:32:19.625Z,7.30
2022-11-08T23:37:16.876Z,7.95
2022-11-08T23:42:37.141Z,7.15
2022-11-08T23:47:34.255Z,8.17
2022-11-08T23:52:32.510Z,8.10
2022-11-08T23:57:30.840Z,7.70
